Abilene, Kansas
Current Conditions -  °F | °C
As of 3:53 AM on Sunday 25 Jan 2015 (Local Time) from KSLN Reporting Station
Overcast Overcast  
Wind Chill: 39°   Ceiling: 5000
Heat Index: 47°   Visibility: 10mi
Dew Point: 33°   Wind: 23mph
Humidity: 59%   Direction: 300°WNW
Pressure: 29.81"   Gusts: 30mph
Location:  38.92°N, 97.21°W
Report Text: KSLN 250953Z 30020G26KT 10SM BKN050 OVC065 08/01 A2981 RMK AO2 PK WND 30028/0905 SLP094 T00830006
Loading
Personal Weather Stations






























Interactive Weather Map New forecast layout! Learn more

10-Day Weather Forecast

Advertisements
Track Severe Weather on mobile